createdAt,value
2023-03-17T00:04:34.301Z,7.15
2023-03-17T00:09:15.439Z,5.55
2023-03-17T00:13:54.840Z,6.17
2023-03-17T00:18:33.826Z,6.45
2023-03-17T00:23:17.073Z,10.27
2023-03-17T00:27:56.291Z,7.07
2023-03-17T00:32:36.137Z,6.32
2023-03-17T00:37:14.920Z,7.70
2023-03-17T00:41:53.686Z,7.00
2023-03-17T00:46:37.982Z,7.97
2023-03-17T00:51:17.898Z,6.07
2023-03-17T00:55:55.539Z,8.68
2023-03-17T01:00:35.398Z,10.83
2023-03-17T01:05:16.128Z,6.78
2023-03-17T01:09:55.921Z,7.05
2023-03-17T01:14:38.104Z,8.73
2023-03-17T01:19:17.082Z,4.72
2023-03-17T01:23:56.100Z,5.43
2023-03-17T01:28:37.336Z,8.02
2023-03-17T01:33:15.592Z,5.13
2023-03-17T01:37:55.452Z,6.00
2023-03-17T01:42:34.133Z,7.53
2023-03-17T01:47:16.986Z,7.20
2023-03-17T01:52:02.603Z,7.63
2023-03-17T01:56:45.189Z,8.23
2023-03-17T02:01:30.662Z,6.57
2023-03-17T02:06:12.577Z,9.20
2023-03-17T02:10:50.729Z,6.80
2023-03-17T02:15:38.938Z,6.47
2023-03-17T02:21:03.910Z,6.23
2023-03-17T02:25:47.166Z,6.18
2023-03-17T02:30:26.847Z,5.65
2023-03-17T02:35:07.168Z,5.80
2023-03-17T02:39:48.744Z,6.88
2023-03-17T02:44:29.823Z,7.88
2023-03-17T02:49:08.372Z,8.83
2023-03-17T02:53:47.495Z,9.02
2023-03-17T02:58:27.086Z,7.97
2023-03-17T03:03:08.473Z,5.43
2023-03-17T03:07:46.150Z,5.73
2023-03-17T03:12:26.019Z,6.10
2023-03-17T03:17:05.467Z,6.50
2023-03-17T03:21:46.325Z,5.77
2023-03-17T03:26:24.357Z,8.13
2023-03-17T03:31:03.926Z,7.10
2023-03-17T03:35:44.394Z,7.53
2023-03-17T03:40:25.216Z,6.80
2023-03-17T03:45:02.598Z,8.93
2023-03-17T03:49:42.240Z,7.05
2023-03-17T03:54:21.690Z,7.50
2023-03-17T03:59:02.547Z,3.78
2023-03-17T04:03:40.884Z,6.30
2023-03-17T04:08:20.301Z,6.77
2023-03-17T04:13:04.435Z,6.40
2023-03-17T04:17:50.028Z,8.15
2023-03-17T04:22:34.454Z,5.37
2023-03-17T04:27:18.802Z,6.18
2023-03-17T04:32:03.397Z,6.53
2023-03-17T04:36:50.042Z,5.93
2023-03-17T04:41:34.537Z,4.97
2023-03-17T04:46:18.624Z,6.68
2023-03-17T04:51:02.760Z,6.95
2023-03-17T04:55:48.190Z,8.53
2023-03-17T05:00:33.800Z,7.30
2023-03-17T05:05:17.955Z,7.65
2023-03-17T05:10:02.143Z,7.27
2023-03-17T05:14:47.787Z,7.22
2023-03-17T05:19:31.838Z,6.72
2023-03-17T05:24:15.937Z,6.32
2023-03-17T05:29:00.330Z,6.80
2023-03-17T05:33:46.625Z,7.63
2023-03-17T05:38:30.978Z,7.47
2023-03-17T05:43:15.364Z,8.57
2023-03-17T05:47:59.528Z,9.55
2023-03-17T05:52:44.981Z,5.22
2023-03-17T05:57:29.231Z,5.50
2023-03-17T06:02:14.553Z,9.27
2023-03-17T06:06:58.899Z,6.53
2023-03-17T06:11:44.760Z,7.03
2023-03-17T06:16:30.880Z,7.37
2023-03-17T06:21:15.631Z,7.43
2023-03-17T06:25:59.924Z,5.43
2023-03-17T06:30:45.697Z,6.10
2023-03-17T06:35:30.575Z,5.90
2023-03-17T06:40:16.230Z,7.70
2023-03-17T06:45:00.430Z,7.60
2023-03-17T06:49:46.552Z,6.72
2023-03-17T06:54:30.896Z,8.50
2023-03-17T06:59:15.182Z,10.23
2023-03-17T07:03:59.679Z,10.67
2023-03-17T07:08:46.434Z,8.93
2023-03-17T07:13:31.998Z,8.82
2023-03-17T07:18:17.002Z,7.07
2023-03-17T07:23:01.911Z,8.07
2023-03-17T07:27:47.812Z,6.55
2023-03-17T07:32:32.024Z,7.40
2023-03-17T07:37:16.347Z,6.13
2023-03-17T07:42:00.534Z,6.80
2023-03-17T07:46:46.433Z,7.20
2023-03-17T07:51:30.652Z,8.73
2023-03-17T07:56:14.967Z,7.45
2023-03-17T08:00:59.059Z,7.75
2023-03-17T08:05:46.462Z,4.93
2023-03-17T08:10:30.916Z,7.78
2023-03-17T08:15:15.607Z,6.00
2023-03-17T08:19:59.796Z,8.60
2023-03-17T08:24:45.126Z,8.93
2023-03-17T08:29:30.105Z,7.13
2023-03-17T08:34:14.266Z,8.15
2023-03-17T08:38:58.802Z,7.73
2023-03-17T08:43:44.963Z,7.47
2023-03-17T08:48:30.352Z,6.82
2023-03-17T08:53:14.390Z,7.07
2023-03-17T08:57:58.494Z,6.57
2023-03-17T09:02:45.049Z,6.85
2023-03-17T09:07:29.253Z,6.93
2023-03-17T09:12:15.985Z,6.85
2023-03-17T09:17:00.818Z,6.30
2023-03-17T09:21:46.646Z,5.90
2023-03-17T09:26:31.630Z,4.03
2023-03-17T09:31:15.892Z,4.65
2023-03-17T09:36:00.223Z,4.65
2023-03-17T09:40:50.286Z,6.37
2023-03-17T09:45:37.798Z,6.68
2023-03-17T09:50:29.605Z,3.83
2023-03-17T09:55:26.277Z,4.30
2023-03-17T10:00:23.153Z,5.78
2023-03-17T10:05:20.604Z,6.40
2023-03-17T10:10:16.154Z,4.90
2023-03-17T10:15:04.046Z,4.73
2023-03-17T10:20:01.882Z,4.68
2023-03-17T10:24:54.366Z,6.00
2023-03-17T10:29:42.236Z,4.77
2023-03-17T10:34:31.057Z,5.00
2023-03-17T10:39:21.536Z,3.97
2023-03-17T10:44:27.765Z,5.40
2023-03-17T10:49:29.090Z,5.20
2023-03-17T10:54:20.686Z,4.53
2023-03-17T10:59:10.957Z,3.78
2023-03-17T11:04:03.345Z,4.43
2023-03-17T11:08:58.771Z,3.88
2023-03-17T11:13:47.350Z,5.30
2023-03-17T11:18:40.805Z,3.93
2023-03-17T11:23:49.771Z,5.32
2023-03-17T11:29:01.571Z,5.82
2023-03-17T11:33:56.773Z,6.07
2023-03-17T11:38:56.489Z,8.82
2023-03-17T11:43:54.338Z,6.90
2023-03-17T11:48:50.676Z,4.72
2023-03-17T11:53:53.813Z,4.03
2023-03-17T11:58:42.961Z,4.47
2023-03-17T12:03:46.096Z,5.72
2023-03-17T12:08:46.566Z,5.90
2023-03-17T12:13:41.093Z,7.68
2023-03-17T12:18:33.826Z,5.47
2023-03-17T12:23:29.919Z,4.47
2023-03-17T12:28:21.043Z,7.40
2023-03-17T12:33:17.049Z,6.65
2023-03-17T12:38:11.490Z,4.72
2023-03-17T12:43:11.256Z,6.93
2023-03-17T12:48:33.798Z,4.95
2023-03-17T12:53:30.809Z,6.63
2023-03-17T12:58:30.925Z,5.60
2023-03-17T13:03:26.803Z,4.57
2023-03-17T13:08:16.793Z,7.38
2023-03-17T13:13:18.285Z,7.17
2023-03-17T13:18:50.610Z,7.75
2023-03-17T13:23:36.812Z,4.90
2023-03-17T13:28:28.646Z,6.65
2023-03-17T13:33:23.739Z,5.77
2023-03-17T13:38:39.807Z,5.80
2023-03-17T13:43:47.322Z,7.18
2023-03-17T13:48:36.906Z,5.13
2023-03-17T13:53:27.711Z,5.30
2023-03-17T13:58:27.509Z,7.60
2023-03-17T14:03:19.325Z,7.77
2023-03-17T14:08:07.435Z,6.90
2023-03-17T14:12:58.095Z,8.30
2023-03-17T14:17:46.602Z,7.03
2023-03-17T14:22:32.502Z,5.70
2023-03-17T14:27:16.752Z,6.80
2023-03-17T14:32:06.110Z,6.50
2023-03-17T14:36:52.238Z,7.87
2023-03-17T14:41:37.738Z,7.70
2023-03-17T14:46:25.065Z,7.47
2023-03-17T14:51:15.866Z,8.83
2023-03-17T14:56:01.119Z,8.48
2023-03-17T15:00:49.808Z,7.25
2023-03-17T15:05:39.924Z,6.35
2023-03-17T15:10:26.430Z,7.27
2023-03-17T15:15:22.546Z,8.90
2023-03-17T15:20:17.070Z,9.18
2023-03-17T15:25:02.766Z,5.57
2023-03-17T15:29:48.261Z,6.85
2023-03-17T15:34:32.494Z,4.35
2023-03-17T15:39:17.989Z,7.73
2023-03-17T15:44:04.007Z,6.60
2023-03-17T15:48:49.292Z,7.38
2023-03-17T15:53:33.403Z,8.75
2023-03-17T15:58:18.870Z,7.87
2023-03-17T16:03:13.533Z,11.50
2023-03-17T16:07:58.122Z,7.55
2023-03-17T16:12:42.151Z,10.20
2023-03-17T16:17:32.171Z,7.20
2023-03-17T16:22:39.705Z,5.55
2023-03-17T16:27:23.859Z,5.87
2023-03-17T16:32:14.020Z,6.78
2023-03-17T16:36:59.528Z,8.48
2023-03-17T16:41:43.973Z,9.70
2023-03-17T16:46:29.016Z,7.00
2023-03-17T16:51:13.189Z,8.82
2023-03-17T16:55:58.717Z,10.48
2023-03-17T17:00:43.345Z,5.07
2023-03-17T17:05:29.576Z,7.50
2023-03-17T17:10:15.777Z,5.50
2023-03-17T17:15:01.366Z,8.07
2023-03-17T17:19:45.626Z,6.80
2023-03-17T17:24:29.806Z,7.10
2023-03-17T17:29:16.935Z,5.72
2023-03-17T17:34:02.488Z,8.80
2023-03-17T17:38:46.945Z,8.20
2023-03-17T17:43:31.335Z,10.45
2023-03-17T17:48:16.521Z,8.20
2023-03-17T17:53:05.511Z,6.28
2023-03-17T17:57:52.291Z,10.27
2023-03-17T18:02:36.720Z,11.50
2023-03-17T18:07:20.874Z,9.00
2023-03-17T18:12:06.870Z,10.55
2023-03-17T18:16:51.242Z,12.13
2023-03-17T18:21:36.499Z,12.13
2023-03-17T18:26:20.586Z,9.48
2023-03-17T18:31:10.577Z,11.07
2023-03-17T18:35:55.652Z,9.40
2023-03-17T18:40:39.923Z,11.45
2023-03-17T18:45:24.310Z,13.25
2023-03-17T18:50:13.106Z,9.37
2023-03-17T18:54:57.245Z,11.90
2023-03-17T18:59:41.338Z,9.82
2023-03-17T19:04:25.837Z,9.50
2023-03-17T19:09:11.824Z,12.87
2023-03-17T19:13:55.984Z,10.90
2023-03-17T19:18:42.193Z,9.90
2023-03-17T19:23:26.722Z,10.93
2023-03-17T19:28:12.557Z,9.63
2023-03-17T19:32:56.794Z,10.75
2023-03-17T19:37:41.060Z,8.90
2023-03-17T19:42:25.329Z,8.82
2023-03-17T19:47:11.211Z,10.10
2023-03-17T19:51:55.256Z,8.30
2023-03-17T19:56:39.669Z,11.23
2023-03-17T20:01:23.888Z,15.20
2023-03-17T20:06:09.566Z,10.93
2023-03-17T20:10:54.115Z,11.40
2023-03-17T20:15:38.357Z,14.77
2023-03-17T20:20:22.519Z,15.70
2023-03-17T20:25:10.371Z,9.37
2023-03-17T20:29:55.723Z,10.77
2023-03-17T20:34:39.735Z,10.63
2023-03-17T20:39:24.076Z,13.25
2023-03-17T20:44:09.812Z,10.03
2023-03-17T20:48:58.705Z,13.73
2023-03-17T20:53:44.667Z,11.55
2023-03-17T20:58:28.949Z,13.57
2023-03-17T21:03:09.926Z,10.90
2023-03-17T21:07:54.167Z,8.98
2023-03-17T21:12:38.423Z,9.33
2023-03-17T21:17:22.882Z,15.35
2023-03-17T21:22:08.288Z,10.82
2023-03-17T21:26:52.413Z,9.93
2023-03-17T21:31:36.859Z,10.73
2023-03-17T21:36:22.065Z,14.27
2023-03-17T21:41:22.398Z,16.27
2023-03-17T21:46:07.073Z,13.00
2023-03-17T21:50:51.196Z,11.57
2023-03-17T21:55:35.763Z,12.18
2023-03-17T22:00:15.804Z,11.60
2023-03-17T22:04:56.865Z,9.90
2023-03-17T22:09:36.098Z,12.60
2023-03-17T22:14:20.014Z,14.27
2023-03-17T22:18:59.126Z,14.23
2023-03-17T22:23:41.337Z,11.00
2023-03-17T22:28:20.415Z,8.70
2023-03-17T22:32:59.432Z,10.37
2023-03-17T22:37:41.264Z,9.10
2023-03-17T22:42:20.051Z,10.23
2023-03-17T22:46:58.436Z,11.57
2023-03-17T22:51:38.187Z,11.40
2023-03-17T22:56:19.276Z,10.18
2023-03-17T23:00:57.420Z,13.48
2023-03-17T23:05:36.419Z,13.20
2023-03-17T23:10:17.735Z,14.82
2023-03-17T23:14:57.390Z,13.77
2023-03-17T23:19:35.049Z,16.37
2023-03-17T23:24:14.801Z,13.80
2023-03-17T23:28:54.173Z,12.45
2023-03-17T23:33:35.081Z,15.33
2023-03-17T23:38:13.534Z,15.35
2023-03-17T23:42:55.163Z,11.32
2023-03-17T23:47:32.945Z,10.38
2023-03-17T23:52:13.760Z,13.30
2023-03-17T23:56:52.691Z,16.50
